sensor_id;sensor_type;location;lat;lon;timestamp;P1;durP1;ratioP1;P2;durP2;ratioP2
52940;SDS011;62001;53.366;6.636;2023-04-08T00:01:05;21.80;;;15.33;;
52940;SDS011;62001;53.366;6.636;2023-04-08T00:03:31;21.30;;;15.33;;
52940;SDS011;62001;53.366;6.636;2023-04-08T00:05:57;21.37;;;14.97;;
52940;SDS011;62001;53.366;6.636;2023-04-08T00:08:24;21.27;;;15.40;;
52940;SDS011;62001;53.366;6.636;2023-04-08T00:10:50;26.47;;;16.30;;
52940;SDS011;62001;53.366;6.636;2023-04-08T00:13:16;22.57;;;16.00;;
52940;SDS011;62001;53.366;6.636;2023-04-08T00:15:42;22.17;;;16.40;;
52940;SDS011;62001;53.366;6.636;2023-04-08T00:18:08;23.57;;;16.63;;
52940;SDS011;62001;53.366;6.636;2023-04-08T00:20:34;26.13;;;16.23;;
52940;SDS011;62001;53.366;6.636;2023-04-08T00:23:00;24.00;;;17.07;;
52940;SDS011;62001;53.366;6.636;2023-04-08T00:25:25;29.80;;;17.87;;
52940;SDS011;62001;53.366;6.636;2023-04-08T00:27:51;26.40;;;18.57;;
52940;SDS011;62001;53.366;6.636;2023-04-08T00:30:17;24.20;;;18.30;;
52940;SDS011;62001;53.366;6.636;2023-04-08T00:32:43;25.77;;;19.40;;
52940;SDS011;62001;53.366;6.636;2023-04-08T00:35:09;26.90;;;18.83;;
52940;SDS011;62001;53.366;6.636;2023-04-08T00:37:37;25.17;;;18.47;;
52940;SDS011;62001;53.366;6.636;2023-04-08T00:40:03;30.37;;;19.67;;
52940;SDS011;62001;53.366;6.636;2023-04-08T00:42:29;31.17;;;21.40;;
52940;SDS011;62001;53.366;6.636;2023-04-08T00:44:55;29.17;;;20.33;;
52940;SDS011;62001;53.366;6.636;2023-04-08T00:47:21;30.40;;;21.60;;
52940;SDS011;62001;53.366;6.636;2023-04-08T00:49:48;28.70;;;20.67;;
52940;SDS011;62001;53.366;6.636;2023-04-08T00:52:13;29.90;;;20.47;;
52940;SDS011;62001;53.366;6.636;2023-04-08T00:54:40;28.87;;;19.50;;
52940;SDS011;62001;53.366;6.636;2023-04-08T00:57:06;30.77;;;19.00;;
52940;SDS011;62001;53.366;6.636;2023-04-08T00:59:32;28.03;;;20.10;;
52940;SDS011;62001;53.366;6.636;2023-04-08T01:02:18;30.00;;;19.93;;
52940;SDS011;62001;53.366;6.636;2023-04-08T01:07:28;28.60;;;19.83;;
52940;SDS011;62001;53.366;6.636;2023-04-08T01:10:12;30.23;;;20.30;;
52940;SDS011;62001;53.366;6.636;2023-04-08T01:13:05;32.78;;;20.90;;
52940;SDS011;62001;53.366;6.636;2023-04-08T01:15:34;30.43;;;20.20;;
52940;SDS011;62001;53.366;6.636;2023-04-08T01:18:04;31.17;;;20.90;;
52940;SDS011;62001;53.366;6.636;2023-04-08T01:20:32;29.23;;;20.93;;
52940;SDS011;62001;53.366;6.636;2023-04-08T01:25:37;33.80;;;22.17;;
52940;SDS011;62001;53.366;6.636;2023-04-08T01:28:07;31.57;;;21.57;;
52940;SDS011;62001;53.366;6.636;2023-04-08T01:30:39;35.43;;;23.27;;
52940;SDS011;62001;53.366;6.636;2023-04-08T01:33:06;33.23;;;23.30;;
52940;SDS011;62001;53.366;6.636;2023-04-08T01:35:34;35.63;;;23.07;;
52940;SDS011;62001;53.366;6.636;2023-04-08T01:38:00;32.87;;;22.57;;
52940;SDS011;62001;53.366;6.636;2023-04-08T01:40:29;36.00;;;23.97;;
52940;SDS011;62001;53.366;6.636;2023-04-08T01:42:58;37.83;;;24.47;;
52940;SDS011;62001;53.366;6.636;2023-04-08T01:45:26;37.53;;;23.20;;
52940;SDS011;62001;53.366;6.636;2023-04-08T01:47:54;34.97;;;23.13;;
52940;SDS011;62001;53.366;6.636;2023-04-08T01:50:20;39.10;;;25.13;;
52940;SDS011;62001;53.366;6.636;2023-04-08T01:52:48;37.73;;;24.27;;
52940;SDS011;62001;53.366;6.636;2023-04-08T01:55:17;37.97;;;23.33;;
52940;SDS011;62001;53.366;6.636;2023-04-08T01:57:47;32.37;;;21.63;;
52940;SDS011;62001;53.366;6.636;2023-04-08T02:00:17;31.90;;;22.07;;
52940;SDS011;62001;53.366;6.636;2023-04-08T02:02:47;33.23;;;21.43;;
52940;SDS011;62001;53.366;6.636;2023-04-08T02:05:14;33.53;;;21.37;;
52940;SDS011;62001;53.366;6.636;2023-04-08T02:07:40;34.47;;;21.83;;
52940;SDS011;62001;53.366;6.636;2023-04-08T02:10:06;36.93;;;22.67;;
52940;SDS011;62001;53.366;6.636;2023-04-08T02:12:32;34.27;;;21.40;;
52940;SDS011;62001;53.366;6.636;2023-04-08T02:14:58;40.40;;;24.50;;
52940;SDS011;62001;53.366;6.636;2023-04-08T02:23:08;40.27;;;23.70;;
52940;SDS011;62001;53.366;6.636;2023-04-08T02:25:39;36.17;;;22.73;;
52940;SDS011;62001;53.366;6.636;2023-04-08T02:28:09;34.95;;;22.08;;
52940;SDS011;62001;53.366;6.636;2023-04-08T02:30:36;34.07;;;22.37;;
52940;SDS011;62001;53.366;6.636;2023-04-08T02:33:06;33.07;;;21.57;;
52940;SDS011;62001;53.366;6.636;2023-04-08T02:35:33;29.70;;;20.10;;
52940;SDS011;62001;53.366;6.636;2023-04-08T02:38:00;37.17;;;22.73;;
52940;SDS011;62001;53.366;6.636;2023-04-08T02:40:27;31.20;;;21.60;;
52940;SDS011;62001;53.366;6.636;2023-04-08T02:42:55;32.87;;;22.67;;
52940;SDS011;62001;53.366;6.636;2023-04-08T02:45:21;33.40;;;22.43;;
52940;SDS011;62001;53.366;6.636;2023-04-08T02:47:50;38.20;;;24.33;;
52940;SDS011;62001;53.366;6.636;2023-04-08T02:50:16;38.33;;;24.50;;
52940;SDS011;62001;53.366;6.636;2023-04-08T02:52:42;40.33;;;24.77;;
52940;SDS011;62001;53.366;6.636;2023-04-08T02:55:09;42.73;;;25.50;;
52940;SDS011;62001;53.366;6.636;2023-04-08T02:57:38;41.13;;;26.40;;
52940;SDS011;62001;53.366;6.636;2023-04-08T03:00:05;40.13;;;26.30;;
52940;SDS011;62001;53.366;6.636;2023-04-08T03:02:32;42.93;;;26.00;;
52940;SDS011;62001;53.366;6.636;2023-04-08T03:04:58;42.63;;;26.63;;
52940;SDS011;62001;53.366;6.636;2023-04-08T03:07:24;39.13;;;24.63;;
52940;SDS011;62001;53.366;6.636;2023-04-08T03:09:50;39.00;;;25.23;;
52940;SDS011;62001;53.366;6.636;2023-04-08T03:12:17;41.70;;;25.03;;
52940;SDS011;62001;53.366;6.636;2023-04-08T03:14:42;41.00;;;24.77;;
52940;SDS011;62001;53.366;6.636;2023-04-08T03:17:10;42.00;;;25.87;;
52940;SDS011;62001;53.366;6.636;2023-04-08T03:19:35;38.50;;;25.27;;
52940;SDS011;62001;53.366;6.636;2023-04-08T03:22:01;43.90;;;26.40;;
52940;SDS011;62001;53.366;6.636;2023-04-08T03:24:27;39.40;;;25.17;;
52940;SDS011;62001;53.366;6.636;2023-04-08T03:26:53;46.37;;;27.37;;
52940;SDS011;62001;53.366;6.636;2023-04-08T03:29:19;45.67;;;27.30;;
52940;SDS011;62001;53.366;6.636;2023-04-08T03:31:45;46.33;;;27.33;;
52940;SDS011;62001;53.366;6.636;2023-04-08T03:34:11;40.47;;;26.07;;
52940;SDS011;62001;53.366;6.636;2023-04-08T03:36:36;45.20;;;28.03;;
52940;SDS011;62001;53.366;6.636;2023-04-08T03:39:02;47.63;;;27.50;;
52940;SDS011;62001;53.366;6.636;2023-04-08T03:41:28;40.77;;;26.30;;
52940;SDS011;62001;53.366;6.636;2023-04-08T03:43:54;42.93;;;27.00;;
52940;SDS011;62001;53.366;6.636;2023-04-08T03:46:20;44.67;;;28.90;;
52940;SDS011;62001;53.366;6.636;2023-04-08T03:48:46;51.47;;;29.07;;
52940;SDS011;62001;53.366;6.636;2023-04-08T03:51:12;44.37;;;28.57;;
52940;SDS011;62001;53.366;6.636;2023-04-08T03:53:38;48.23;;;29.23;;
52940;SDS011;62001;53.366;6.636;2023-04-08T03:56:04;47.63;;;29.77;;
52940;SDS011;62001;53.366;6.636;2023-04-08T03:58:30;49.17;;;29.00;;
52940;SDS011;62001;53.366;6.636;2023-04-08T04:00:56;46.73;;;27.73;;
52940;SDS011;62001;53.366;6.636;2023-04-08T04:03:22;45.90;;;27.90;;
52940;SDS011;62001;53.366;6.636;2023-04-08T04:05:49;44.07;;;28.00;;
52940;SDS011;62001;53.366;6.636;2023-04-08T04:08:15;44.47;;;27.60;;
52940;SDS011;62001;53.366;6.636;2023-04-08T04:10:41;43.70;;;27.13;;
52940;SDS011;62001;53.366;6.636;2023-04-08T04:13:06;47.83;;;29.23;;
52940;SDS011;62001;53.366;6.636;2023-04-08T04:15:32;55.57;;;28.87;;
52940;SDS011;62001;53.366;6.636;2023-04-08T04:18:02;52.83;;;30.80;;
52940;SDS011;62001;53.366;6.636;2023-04-08T04:20:27;54.10;;;29.90;;
52940;SDS011;62001;53.366;6.636;2023-04-08T04:22:54;49.87;;;29.57;;
52940;SDS011;62001;53.366;6.636;2023-04-08T04:25:20;48.97;;;28.40;;
52940;SDS011;62001;53.366;6.636;2023-04-08T04:27:46;57.63;;;31.27;;
52940;SDS011;62001;53.366;6.636;2023-04-08T04:30:11;59.33;;;31.83;;
52940;SDS011;62001;53.366;6.636;2023-04-08T04:32:40;60.70;;;33.97;;
52940;SDS011;62001;53.366;6.636;2023-04-08T04:35:08;62.20;;;33.70;;
52940;SDS011;62001;53.366;6.636;2023-04-08T04:37:37;60.65;;;32.17;;
52940;SDS011;62001;53.366;6.636;2023-04-08T04:40:03;57.10;;;30.77;;
52940;SDS011;62001;53.366;6.636;2023-04-08T04:42:29;69.40;;;33.90;;
52940;SDS011;62001;53.366;6.636;2023-04-08T04:44:56;66.33;;;34.80;;
52940;SDS011;62001;53.366;6.636;2023-04-08T04:47:23;67.83;;;34.73;;
52940;SDS011;62001;53.366;6.636;2023-04-08T04:49:49;74.00;;;36.43;;
52940;SDS011;62001;53.366;6.636;2023-04-08T04:52:15;75.10;;;36.70;;
52940;SDS011;62001;53.366;6.636;2023-04-08T04:54:42;73.33;;;36.23;;
52940;SDS011;62001;53.366;6.636;2023-04-08T04:57:08;87.40;;;38.70;;
52940;SDS011;62001;53.366;6.636;2023-04-08T04:59:35;108.90;;;42.17;;
52940;SDS011;62001;53.366;6.636;2023-04-08T05:02:01;85.13;;;38.63;;
52940;SDS011;62001;53.366;6.636;2023-04-08T05:04:27;99.97;;;41.07;;
52940;SDS011;62001;53.366;6.636;2023-04-08T05:06:53;74.90;;;36.37;;
52940;SDS011;62001;53.366;6.636;2023-04-08T05:09:19;126.73;;;39.60;;
52940;SDS011;62001;53.366;6.636;2023-04-08T05:11:44;55.97;;;31.70;;
52940;SDS011;62001;53.366;6.636;2023-04-08T05:14:10;68.33;;;33.37;;
52940;SDS011;62001;53.366;6.636;2023-04-08T05:16:36;62.77;;;33.17;;
52940;SDS011;62001;53.366;6.636;2023-04-08T05:19:03;66.63;;;34.30;;
52940;SDS011;62001;53.366;6.636;2023-04-08T05:21:29;62.77;;;33.17;;
52940;SDS011;62001;53.366;6.636;2023-04-08T05:23:54;64.00;;;33.90;;
52940;SDS011;62001;53.366;6.636;2023-04-08T05:26:20;77.67;;;36.53;;
52940;SDS011;62001;53.366;6.636;2023-04-08T05:28:47;68.50;;;35.40;;
52940;SDS011;62001;53.366;6.636;2023-04-08T05:31:16;63.20;;;33.70;;
52940;SDS011;62001;53.366;6.636;2023-04-08T05:33:45;72.30;;;35.57;;
52940;SDS011;62001;53.366;6.636;2023-04-08T05:36:12;64.53;;;34.40;;
52940;SDS011;62001;53.366;6.636;2023-04-08T05:38:38;63.40;;;34.57;;
52940;SDS011;62001;53.366;6.636;2023-04-08T05:41:05;61.60;;;34.13;;
52940;SDS011;62001;53.366;6.636;2023-04-08T05:43:33;60.30;;;33.33;;
52940;SDS011;62001;53.366;6.636;2023-04-08T05:46:04;61.87;;;32.47;;
52940;SDS011;62001;53.366;6.636;2023-04-08T05:48:31;49.57;;;29.47;;
52940;SDS011;62001;53.366;6.636;2023-04-08T05:50:57;57.10;;;32.37;;
52940;SDS011;62001;53.366;6.636;2023-04-08T05:53:22;57.73;;;31.73;;
52940;SDS011;62001;53.366;6.636;2023-04-08T05:55:49;50.33;;;29.30;;
52940;SDS011;62001;53.366;6.636;2023-04-08T05:58:15;48.20;;;28.90;;
52940;SDS011;62001;53.366;6.636;2023-04-08T06:00:41;45.93;;;26.93;;
52940;SDS011;62001;53.366;6.636;2023-04-08T06:03:07;45.97;;;28.23;;
52940;SDS011;62001;53.366;6.636;2023-04-08T06:05:33;46.20;;;26.80;;
52940;SDS011;62001;53.366;6.636;2023-04-08T06:07:58;45.60;;;27.63;;
52940;SDS011;62001;53.366;6.636;2023-04-08T06:10:24;45.27;;;26.27;;
52940;SDS011;62001;53.366;6.636;2023-04-08T06:12:50;46.53;;;27.37;;
52940;SDS011;62001;53.366;6.636;2023-04-08T06:15:16;46.33;;;26.80;;
52940;SDS011;62001;53.366;6.636;2023-04-08T06:17:42;43.40;;;27.37;;
52940;SDS011;62001;53.366;6.636;2023-04-08T06:20:08;42.27;;;26.03;;
52940;SDS011;62001;53.366;6.636;2023-04-08T06:22:34;47.70;;;25.40;;
52940;SDS011;62001;53.366;6.636;2023-04-08T06:25:00;36.90;;;24.97;;
52940;SDS011;62001;53.366;6.636;2023-04-08T06:27:27;37.23;;;24.00;;
52940;SDS011;62001;53.366;6.636;2023-04-08T06:29:53;36.03;;;24.23;;
52940;SDS011;62001;53.366;6.636;2023-04-08T06:32:19;35.20;;;24.00;;
52940;SDS011;62001;53.366;6.636;2023-04-08T06:34:46;33.70;;;23.30;;
52940;SDS011;62001;53.366;6.636;2023-04-08T06:37:13;28.87;;;20.67;;
52940;SDS011;62001;53.366;6.636;2023-04-08T06:39:39;31.13;;;20.27;;
52940;SDS011;62001;53.366;6.636;2023-04-08T06:42:05;25.80;;;18.83;;
52940;SDS011;62001;53.366;6.636;2023-04-08T06:44:31;26.33;;;17.60;;
52940;SDS011;62001;53.366;6.636;2023-04-08T06:46:57;22.77;;;17.33;;
52940;SDS011;62001;53.366;6.636;2023-04-08T06:49:23;26.27;;;17.83;;
52940;SDS011;62001;53.366;6.636;2023-04-08T06:51:49;25.07;;;16.23;;
52940;SDS011;62001;53.366;6.636;2023-04-08T06:54:15;22.30;;;16.40;;
52940;SDS011;62001;53.366;6.636;2023-04-08T06:56:40;20.77;;;15.10;;
52940;SDS011;62001;53.366;6.636;2023-04-08T06:59:07;23.70;;;16.30;;
52940;SDS011;62001;53.366;6.636;2023-04-08T07:01:33;25.50;;;15.93;;
52940;SDS011;62001;53.366;6.636;2023-04-08T07:03:58;21.53;;;15.23;;
52940;SDS011;62001;53.366;6.636;2023-04-08T07:06:26;24.03;;;16.50;;
52940;SDS011;62001;53.366;6.636;2023-04-08T07:08:52;23.47;;;16.83;;
52940;SDS011;62001;53.366;6.636;2023-04-08T07:11:18;24.63;;;18.20;;
52940;SDS011;62001;53.366;6.636;2023-04-08T07:13:48;22.45;;;16.48;;
52940;SDS011;62001;53.366;6.636;2023-04-08T07:16:14;20.57;;;15.03;;
52940;SDS011;62001;53.366;6.636;2023-04-08T07:18:39;21.47;;;14.77;;
52940;SDS011;62001;53.366;6.636;2023-04-08T07:21:06;19.97;;;14.33;;
52940;SDS011;62001;53.366;6.636;2023-04-08T07:23:32;23.93;;;15.73;;
52940;SDS011;62001;53.366;6.636;2023-04-08T07:26:02;21.87;;;16.00;;
52940;SDS011;62001;53.366;6.636;2023-04-08T07:28:29;27.07;;;16.83;;
52940;SDS011;62001;53.366;6.636;2023-04-08T07:30:55;24.90;;;18.17;;
52940;SDS011;62001;53.366;6.636;2023-04-08T07:33:21;25.70;;;18.07;;
52940;SDS011;62001;53.366;6.636;2023-04-08T07:35:47;23.83;;;18.13;;
52940;SDS011;62001;53.366;6.636;2023-04-08T07:38:13;27.17;;;17.53;;
52940;SDS011;62001;53.366;6.636;2023-04-08T07:40:39;23.40;;;17.23;;
52940;SDS011;62001;53.366;6.636;2023-04-08T07:43:05;25.40;;;17.97;;
52940;SDS011;62001;53.366;6.636;2023-04-08T07:45:33;30.10;;;19.30;;
52940;SDS011;62001;53.366;6.636;2023-04-08T07:47:59;26.90;;;18.53;;
52940;SDS011;62001;53.366;6.636;2023-04-08T07:50:25;24.77;;;17.17;;
52940;SDS011;62001;53.366;6.636;2023-04-08T07:52:51;29.57;;;19.47;;
52940;SDS011;62001;53.366;6.636;2023-04-08T07:55:17;27.90;;;19.00;;
52940;SDS011;62001;53.366;6.636;2023-04-08T07:57:43;25.30;;;18.87;;
52940;SDS011;62001;53.366;6.636;2023-04-08T08:00:10;22.87;;;17.33;;
52940;SDS011;62001;53.366;6.636;2023-04-08T08:02:36;21.67;;;16.00;;
52940;SDS011;62001;53.366;6.636;2023-04-08T08:05:02;24.77;;;16.80;;
52940;SDS011;62001;53.366;6.636;2023-04-08T08:07:28;20.40;;;15.10;;
52940;SDS011;62001;53.366;6.636;2023-04-08T08:09:54;28.47;;;19.53;;
52940;SDS011;62001;53.366;6.636;2023-04-08T08:12:20;24.47;;;17.43;;
52940;SDS011;62001;53.366;6.636;2023-04-08T08:14:46;23.27;;;17.20;;
52940;SDS011;62001;53.366;6.636;2023-04-08T08:17:12;28.37;;;19.07;;
52940;SDS011;62001;53.366;6.636;2023-04-08T08:19:38;29.10;;;19.10;;
52940;SDS011;62001;53.366;6.636;2023-04-08T08:22:04;26.97;;;19.50;;
52940;SDS011;62001;53.366;6.636;2023-04-08T08:24:30;23.07;;;17.47;;
52940;SDS011;62001;53.366;6.636;2023-04-08T08:26:56;25.57;;;19.17;;
52940;SDS011;62001;53.366;6.636;2023-04-08T08:29:22;24.73;;;18.00;;
52940;SDS011;62001;53.366;6.636;2023-04-08T08:31:48;25.07;;;18.50;;
52940;SDS011;62001;53.366;6.636;2023-04-08T08:34:14;22.58;;;16.83;;
52940;SDS011;62001;53.366;6.636;2023-04-08T08:36:40;25.77;;;18.40;;
52940;SDS011;62001;53.366;6.636;2023-04-08T08:39:06;26.60;;;19.43;;
52940;SDS011;62001;53.366;6.636;2023-04-08T08:41:32;30.55;;;21.92;;
52940;SDS011;62001;53.366;6.636;2023-04-08T08:44:01;32.75;;;23.23;;
52940;SDS011;62001;53.366;6.636;2023-04-08T08:46:29;28.53;;;21.90;;
52940;SDS011;62001;53.366;6.636;2023-04-08T08:48:55;27.45;;;19.92;;
52940;SDS011;62001;53.366;6.636;2023-04-08T08:51:22;35.15;;;25.75;;
52940;SDS011;62001;53.366;6.636;2023-04-08T08:53:48;35.83;;;25.60;;
52940;SDS011;62001;53.366;6.636;2023-04-08T08:56:14;34.83;;;24.93;;
52940;SDS011;62001;53.366;6.636;2023-04-08T08:58:40;38.30;;;25.30;;
52940;SDS011;62001;53.366;6.636;2023-04-08T09:04:08;33.50;;;22.90;;
52940;SDS011;62001;53.366;6.636;2023-04-08T09:06:36;33.83;;;24.33;;
52940;SDS011;62001;53.366;6.636;2023-04-08T09:09:02;32.03;;;24.17;;
52940;SDS011;62001;53.366;6.636;2023-04-08T09:11:38;38.38;;;26.80;;
52940;SDS011;62001;53.366;6.636;2023-04-08T09:14:16;35.60;;;26.15;;
52940;SDS011;62001;53.366;6.636;2023-04-08T09:16:49;35.17;;;25.48;;
52940;SDS011;62001;53.366;6.636;2023-04-08T09:19:15;34.38;;;23.67;;
52940;SDS011;62001;53.366;6.636;2023-04-08T09:21:42;34.60;;;24.17;;
52940;SDS011;62001;53.366;6.636;2023-04-08T09:24:26;35.45;;;24.70;;
52940;SDS011;62001;53.366;6.636;2023-04-08T09:26:53;29.92;;;21.67;;
52940;SDS011;62001;53.366;6.636;2023-04-08T09:29:22;28.33;;;20.92;;
52940;SDS011;62001;53.366;6.636;2023-04-08T09:31:56;33.03;;;22.00;;
52940;SDS011;62001;53.366;6.636;2023-04-08T09:34:23;36.38;;;22.40;;
52940;SDS011;62001;53.366;6.636;2023-04-08T09:36:52;32.90;;;21.05;;
52940;SDS011;62001;53.366;6.636;2023-04-08T09:39:18;36.90;;;22.77;;
52940;SDS011;62001;53.366;6.636;2023-04-08T09:41:46;36.47;;;22.90;;
52940;SDS011;62001;53.366;6.636;2023-04-08T09:44:14;32.58;;;21.80;;
52940;SDS011;62001;53.366;6.636;2023-04-08T09:49:19;37.00;;;24.75;;
52940;SDS011;62001;53.366;6.636;2023-04-08T09:52:10;32.65;;;21.67;;
52940;SDS011;62001;53.366;6.636;2023-04-08T09:57:30;36.58;;;22.13;;
52940;SDS011;62001;53.366;6.636;2023-04-08T10:02:32;34.30;;;20.98;;
52940;SDS011;62001;53.366;6.636;2023-04-08T10:05:09;29.30;;;21.77;;
52940;SDS011;62001;53.366;6.636;2023-04-08T10:07:37;39.30;;;25.08;;
52940;SDS011;62001;53.366;6.636;2023-04-08T10:10:04;42.40;;;26.23;;
52940;SDS011;62001;53.366;6.636;2023-04-08T10:12:31;41.42;;;27.80;;
52940;SDS011;62001;53.366;6.636;2023-04-08T10:17:52;38.20;;;25.90;;
52940;SDS011;62001;53.366;6.636;2023-04-08T10:20:51;39.85;;;24.48;;
52940;SDS011;62001;53.366;6.636;2023-04-08T10:25:42;38.60;;;25.27;;
52940;SDS011;62001;53.366;6.636;2023-04-08T10:30:47;34.75;;;22.23;;
52940;SDS011;62001;53.366;6.636;2023-04-08T10:33:14;36.95;;;23.38;;
52940;SDS011;62001;53.366;6.636;2023-04-08T10:35:51;37.85;;;24.75;;
52940;SDS011;62001;53.366;6.636;2023-04-08T10:38:18;35.33;;;24.73;;
52940;SDS011;62001;53.366;6.636;2023-04-08T10:40:46;36.45;;;24.63;;
52940;SDS011;62001;53.366;6.636;2023-04-08T10:43:13;40.15;;;23.92;;
52940;SDS011;62001;53.366;6.636;2023-04-08T10:45:40;39.53;;;24.38;;
52940;SDS011;62001;53.366;6.636;2023-04-08T10:48:13;40.95;;;24.33;;
52940;SDS011;62001;53.366;6.636;2023-04-08T10:56:02;35.83;;;23.25;;
52940;SDS011;62001;53.366;6.636;2023-04-08T10:58:28;33.75;;;22.70;;
52940;SDS011;62001;53.366;6.636;2023-04-08T11:00:54;35.47;;;23.58;;
52940;SDS011;62001;53.366;6.636;2023-04-08T11:03:27;34.72;;;23.05;;
52940;SDS011;62001;53.366;6.636;2023-04-08T11:05:52;36.47;;;23.15;;
52940;SDS011;62001;53.366;6.636;2023-04-08T11:08:26;36.65;;;23.13;;
52940;SDS011;62001;53.366;6.636;2023-04-08T11:10:53;31.27;;;21.15;;
52940;SDS011;62001;53.366;6.636;2023-04-08T11:13:19;32.50;;;21.67;;
52940;SDS011;62001;53.366;6.636;2023-04-08T11:15:47;29.70;;;21.10;;
52940;SDS011;62001;53.366;6.636;2023-04-08T11:18:14;32.13;;;21.30;;
52940;SDS011;62001;53.366;6.636;2023-04-08T11:20:42;32.78;;;21.20;;
52940;SDS011;62001;53.366;6.636;2023-04-08T11:23:14;30.45;;;20.15;;
52940;SDS011;62001;53.366;6.636;2023-04-08T11:25:41;28.65;;;19.25;;
52940;SDS011;62001;53.366;6.636;2023-04-08T11:28:09;31.27;;;20.40;;
52940;SDS011;62001;53.366;6.636;2023-04-08T11:30:37;29.90;;;21.00;;
52940;SDS011;62001;53.366;6.636;2023-04-08T11:33:06;31.23;;;19.27;;
52940;SDS011;62001;53.366;6.636;2023-04-08T11:35:32;29.40;;;18.67;;
52940;SDS011;62001;53.366;6.636;2023-04-08T11:37:58;31.58;;;19.30;;
52940;SDS011;62001;53.366;6.636;2023-04-08T11:40:24;34.35;;;19.98;;
52940;SDS011;62001;53.366;6.636;2023-04-08T11:42:51;27.98;;;18.77;;
52940;SDS011;62001;53.366;6.636;2023-04-08T11:45:17;26.80;;;17.23;;
52940;SDS011;62001;53.366;6.636;2023-04-08T11:47:45;25.98;;;16.58;;
52940;SDS011;62001;53.366;6.636;2023-04-08T11:50:17;27.52;;;16.77;;
52940;SDS011;62001;53.366;6.636;2023-04-08T11:52:50;23.83;;;16.27;;
52940;SDS011;62001;53.366;6.636;2023-04-08T11:55:26;25.65;;;15.75;;
52940;SDS011;62001;53.366;6.636;2023-04-08T11:57:54;24.65;;;16.35;;
52940;SDS011;62001;53.366;6.636;2023-04-08T12:00:20;22.02;;;15.27;;
52940;SDS011;62001;53.366;6.636;2023-04-08T12:02:47;21.40;;;14.50;;
52940;SDS011;62001;53.366;6.636;2023-04-08T12:05:14;19.02;;;13.82;;
52940;SDS011;62001;53.366;6.636;2023-04-08T12:07:40;17.15;;;12.50;;
52940;SDS011;62001;53.366;6.636;2023-04-08T12:10:07;12.98;;;10.48;;
52940;SDS011;62001;53.366;6.636;2023-04-08T12:12:34;11.52;;;9.75;;
52940;SDS011;62001;53.366;6.636;2023-04-08T12:14:59;14.73;;;10.98;;
52940;SDS011;62001;53.366;6.636;2023-04-08T12:17:25;15.68;;;12.02;;
52940;SDS011;62001;53.366;6.636;2023-04-08T12:19:51;18.33;;;12.18;;
52940;SDS011;62001;53.366;6.636;2023-04-08T12:22:17;14.98;;;11.80;;
52940;SDS011;62001;53.366;6.636;2023-04-08T12:24:43;20.17;;;13.25;;
52940;SDS011;62001;53.366;6.636;2023-04-08T12:27:09;15.80;;;12.65;;
52940;SDS011;62001;53.366;6.636;2023-04-08T12:29:35;16.33;;;12.93;;
52940;SDS011;62001;53.366;6.636;2023-04-08T12:32:01;16.25;;;12.93;;
52940;SDS011;62001;53.366;6.636;2023-04-08T12:34:28;16.63;;;13.27;;
52940;SDS011;62001;53.366;6.636;2023-04-08T12:36:54;15.43;;;13.02;;
52940;SDS011;62001;53.366;6.636;2023-04-08T12:39:20;16.95;;;14.25;;
52940;SDS011;62001;53.366;6.636;2023-04-08T12:41:46;15.18;;;12.32;;
52940;SDS011;62001;53.366;6.636;2023-04-08T12:44:12;16.48;;;13.00;;
52940;SDS011;62001;53.366;6.636;2023-04-08T12:46:38;18.05;;;14.43;;
52940;SDS011;62001;53.366;6.636;2023-04-08T12:49:04;16.25;;;12.48;;
52940;SDS011;62001;53.366;6.636;2023-04-08T12:51:30;21.58;;;15.48;;
52940;SDS011;62001;53.366;6.636;2023-04-08T12:53:56;15.75;;;13.25;;
52940;SDS011;62001;53.366;6.636;2023-04-08T12:56:23;16.08;;;13.50;;
52940;SDS011;62001;53.366;6.636;2023-04-08T12:58:49;17.27;;;13.13;;
52940;SDS011;62001;53.366;6.636;2023-04-08T13:01:15;17.23;;;13.55;;
52940;SDS011;62001;53.366;6.636;2023-04-08T13:03:41;21.25;;;14.60;;
52940;SDS011;62001;53.366;6.636;2023-04-08T13:06:07;18.60;;;13.75;;
52940;SDS011;62001;53.366;6.636;2023-04-08T13:08:33;17.00;;;14.45;;
52940;SDS011;62001;53.366;6.636;2023-04-08T13:10:58;18.42;;;14.85;;
52940;SDS011;62001;53.366;6.636;2023-04-08T13:13:25;18.50;;;15.13;;
52940;SDS011;62001;53.366;6.636;2023-04-08T13:15:54;23.90;;;15.32;;
52940;SDS011;62001;53.366;6.636;2023-04-08T13:18:23;22.58;;;15.70;;
52940;SDS011;62001;53.366;6.636;2023-04-08T13:20:53;18.60;;;14.90;;
52940;SDS011;62001;53.366;6.636;2023-04-08T13:23:23;19.60;;;15.77;;
52940;SDS011;62001;53.366;6.636;2023-04-08T13:25:49;18.20;;;15.40;;
52940;SDS011;62001;53.366;6.636;2023-04-08T13:28:15;17.63;;;15.27;;
52940;SDS011;62001;53.366;6.636;2023-04-08T13:30:41;23.73;;;15.43;;
52940;SDS011;62001;53.366;6.636;2023-04-08T13:33:07;17.40;;;14.63;;
52940;SDS011;62001;53.366;6.636;2023-04-08T13:35:33;18.90;;;15.60;;
52940;SDS011;62001;53.366;6.636;2023-04-08T13:37:59;18.55;;;15.43;;
52940;SDS011;62001;53.366;6.636;2023-04-08T13:40:24;19.88;;;16.27;;
52940;SDS011;62001;53.366;6.636;2023-04-08T13:42:52;19.88;;;16.23;;
52940;SDS011;62001;53.366;6.636;2023-04-08T13:45:17;25.02;;;17.55;;
52940;SDS011;62001;53.366;6.636;2023-04-08T13:47:44;20.98;;;16.40;;
52940;SDS011;62001;53.366;6.636;2023-04-08T13:50:10;21.10;;;16.63;;
52940;SDS011;62001;53.366;6.636;2023-04-08T13:52:35;22.70;;;17.10;;
52940;SDS011;62001;53.366;6.636;2023-04-08T13:55:01;23.40;;;18.15;;
52940;SDS011;62001;53.366;6.636;2023-04-08T13:57:28;22.17;;;18.50;;
52940;SDS011;62001;53.366;6.636;2023-04-08T13:59:53;25.48;;;19.52;;
52940;SDS011;62001;53.366;6.636;2023-04-08T14:02:19;23.73;;;18.85;;
52940;SDS011;62001;53.366;6.636;2023-04-08T14:04:46;22.73;;;18.73;;
52940;SDS011;62001;53.366;6.636;2023-04-08T14:07:12;22.17;;;18.77;;
52940;SDS011;62001;53.366;6.636;2023-04-08T14:09:38;23.48;;;19.48;;
52940;SDS011;62001;53.366;6.636;2023-04-08T14:12:04;22.08;;;19.20;;
52940;SDS011;62001;53.366;6.636;2023-04-08T14:14:30;25.55;;;18.83;;
52940;SDS011;62001;53.366;6.636;2023-04-08T14:16:56;26.25;;;19.20;;
52940;SDS011;62001;53.366;6.636;2023-04-08T14:19:22;23.92;;;20.05;;
52940;SDS011;62001;53.366;6.636;2023-04-08T14:21:48;24.23;;;20.20;;
52940;SDS011;62001;53.366;6.636;2023-04-08T14:24:14;26.20;;;20.75;;
52940;SDS011;62001;53.366;6.636;2023-04-08T14:26:40;22.80;;;20.05;;
52940;SDS011;62001;53.366;6.636;2023-04-08T14:29:06;25.20;;;20.45;;
52940;SDS011;62001;53.366;6.636;2023-04-08T14:31:32;27.40;;;21.55;;
52940;SDS011;62001;53.366;6.636;2023-04-08T14:33:59;28.52;;;22.95;;
52940;SDS011;62001;53.366;6.636;2023-04-08T14:36:25;25.25;;;21.90;;
52940;SDS011;62001;53.366;6.636;2023-04-08T14:38:53;31.90;;;24.83;;
52940;SDS011;62001;53.366;6.636;2023-04-08T14:41:19;29.00;;;25.08;;
52940;SDS011;62001;53.366;6.636;2023-04-08T14:43:46;32.15;;;27.48;;
52940;SDS011;62001;53.366;6.636;2023-04-08T14:46:12;33.95;;;28.02;;
52940;SDS011;62001;53.366;6.636;2023-04-08T14:48:38;33.67;;;28.08;;
52940;SDS011;62001;53.366;6.636;2023-04-08T14:51:04;35.00;;;31.10;;
52940;SDS011;62001;53.366;6.636;2023-04-08T14:53:31;37.35;;;31.15;;
52940;SDS011;62001;53.366;6.636;2023-04-08T14:55:57;43.10;;;34.15;;